createdAt,value
2023-04-08T00:01:43.522Z,5.09
2023-04-08T00:04:46.087Z,5.02
2023-04-08T00:07:48.541Z,4.96
2023-04-08T00:10:51.297Z,4.95
2023-04-08T00:13:53.953Z,4.86
2023-04-08T00:16:56.422Z,4.96
2023-04-08T00:19:58.851Z,4.86
2023-04-08T00:23:01.235Z,4.79
2023-04-08T00:26:03.769Z,4.78
2023-04-08T00:29:06.332Z,4.66
2023-04-08T00:32:08.997Z,4.57
2023-04-08T00:35:13.028Z,4.57
2023-04-08T00:38:15.915Z,4.49
2023-04-08T00:41:18.304Z,4.45
2023-04-08T00:47:52.982Z,4.22
2023-04-08T00:50:55.672Z,4.13
2023-04-08T00:53:58.388Z,4.09
2023-04-08T00:57:01.320Z,4.08
2023-04-08T01:00:08.475Z,4.05
2023-04-08T01:03:28.432Z,3.98
2023-04-08T01:06:35.072Z,3.86
2023-04-08T01:09:40.059Z,3.78
2023-04-08T01:12:45.357Z,3.83
2023-04-08T01:15:47.977Z,3.81
2023-04-08T01:18:51.909Z,3.74
2023-04-08T01:21:58.069Z,3.62
2023-04-08T01:25:04.931Z,3.63
2023-04-08T01:28:12.744Z,3.59
2023-04-08T01:31:15.665Z,3.62
2023-04-08T01:34:19.857Z,3.68
2023-04-08T01:37:22.901Z,3.83
2023-04-08T01:40:29.680Z,3.87
2023-04-08T01:43:32.884Z,3.85
2023-04-08T01:46:35.949Z,3.76
2023-04-08T01:49:38.924Z,3.69
2023-04-08T01:52:44.910Z,3.72
2023-04-08T01:55:51.111Z,3.67
2023-04-08T01:58:54.850Z,3.67
2023-04-08T02:01:57.851Z,3.58
2023-04-08T02:05:00.368Z,3.51
2023-04-08T02:08:02.683Z,3.49
2023-04-08T02:11:05.295Z,3.39
2023-04-08T02:14:07.998Z,3.30
2023-04-08T02:17:15.073Z,3.27
2023-04-08T02:20:19.416Z,3.20
2023-04-08T02:23:23.900Z,3.07
2023-04-08T02:26:26.935Z,3.00
2023-04-08T02:29:32.893Z,2.79
2023-04-08T02:32:36.318Z,2.77
2023-04-08T02:35:41.256Z,2.50
2023-04-08T02:38:50.419Z,2.68
2023-04-08T02:41:53.025Z,2.59
2023-04-08T02:44:58.372Z,2.63
2023-04-08T02:48:01.674Z,2.66
2023-04-08T02:51:04.312Z,2.72
2023-04-08T02:54:06.673Z,2.81
2023-04-08T02:57:09.133Z,2.81
2023-04-08T03:00:12.215Z,2.81
2023-04-08T03:03:14.715Z,2.87
2023-04-08T03:06:17.326Z,2.84
2023-04-08T03:09:19.917Z,2.66
2023-04-08T03:12:23.265Z,2.80
2023-04-08T03:15:25.839Z,2.81
2023-04-08T03:18:28.230Z,2.73
2023-04-08T03:21:32.349Z,2.76
2023-04-08T03:24:34.710Z,2.67
2023-04-08T03:27:36.969Z,2.57
2023-04-08T03:30:39.210Z,2.67
2023-04-08T03:33:41.579Z,2.63
2023-04-08T03:36:44.259Z,2.56
2023-04-08T03:39:46.850Z,2.60
2023-04-08T03:42:49.316Z,2.52
2023-04-08T03:45:51.800Z,2.48
2023-04-08T03:48:54.280Z,2.37
2023-04-08T03:51:56.842Z,2.33
2023-04-08T03:54:59.239Z,2.27
2023-04-08T03:58:01.632Z,2.33
2023-04-08T04:01:04.039Z,2.35
2023-04-08T04:04:07.015Z,2.25
2023-04-08T04:07:09.605Z,2.18
2023-04-08T04:10:12.259Z,2.11
2023-04-08T04:13:14.618Z,2.17
2023-04-08T04:16:17.158Z,2.15
2023-04-08T04:19:19.554Z,2.23
2023-04-08T04:22:21.936Z,2.23
2023-04-08T04:25:25.952Z,2.21
2023-04-08T04:28:28.280Z,2.25
2023-04-08T04:31:30.955Z,2.08
2023-04-08T04:34:33.655Z,2.24
2023-04-08T04:37:36.581Z,2.31
2023-04-08T04:40:39.851Z,2.40
2023-04-08T04:43:42.451Z,2.34
2023-04-08T04:46:45.068Z,2.37
2023-04-08T04:49:47.779Z,2.48
2023-04-08T04:52:50.194Z,2.51
2023-04-08T04:55:52.887Z,2.53
2023-04-08T04:58:55.318Z,2.52
2023-04-08T05:01:58.021Z,2.82
2023-04-08T05:05:00.633Z,3.46
2023-04-08T05:08:03.087Z,3.46
2023-04-08T05:11:05.614Z,3.97
2023-04-08T05:14:08.437Z,4.03
2023-04-08T05:17:11.188Z,4.06
2023-04-08T05:20:16.416Z,4.81
2023-04-08T05:23:20.027Z,5.12
2023-04-08T05:26:22.603Z,5.48
2023-04-08T05:29:25.274Z,5.36
2023-04-08T05:32:28.001Z,5.65
2023-04-08T05:35:30.438Z,5.83
2023-04-08T05:38:32.931Z,6.04
2023-04-08T05:41:35.509Z,6.16
2023-04-08T05:44:38.884Z,6.14
2023-04-08T05:47:41.506Z,6.48
2023-04-08T05:50:43.991Z,6.51
2023-04-08T05:53:47.245Z,6.64
2023-04-08T05:56:49.735Z,6.58
2023-04-08T05:59:53.506Z,6.38
2023-04-08T06:02:56.245Z,6.98
2023-04-08T06:05:58.712Z,6.91
2023-04-08T06:09:01.255Z,6.86
2023-04-08T06:12:03.709Z,6.83
2023-04-08T06:15:07.664Z,7.14
2023-04-08T06:18:09.947Z,7.14
2023-04-08T06:21:12.339Z,7.27
2023-04-08T06:24:14.728Z,7.40
2023-04-08T06:27:17.296Z,7.59
2023-04-08T06:30:19.724Z,7.66
2023-04-08T06:33:22.056Z,7.14
2023-04-08T06:36:24.391Z,7.13
2023-04-08T06:39:26.678Z,7.29
2023-04-08T06:42:29.157Z,7.18
2023-04-08T06:45:54.037Z,6.75
2023-04-08T06:48:56.734Z,6.73
2023-04-08T06:51:59.094Z,6.52
2023-04-08T06:55:01.843Z,6.56
2023-04-08T06:58:04.259Z,6.62
2023-04-08T07:01:06.865Z,6.67
2023-04-08T07:04:09.281Z,6.46
2023-04-08T07:07:11.622Z,6.40
2023-04-08T07:10:14.225Z,6.47
2023-04-08T07:13:17.575Z,6.85
2023-04-08T07:16:19.990Z,6.75
2023-04-08T07:19:24.559Z,6.68
2023-04-08T07:22:27.076Z,6.72
2023-04-08T07:25:29.380Z,6.76
2023-04-08T07:28:32.392Z,6.91
2023-04-08T07:31:34.745Z,7.15
2023-04-08T07:34:37.102Z,7.41
2023-04-08T07:37:39.851Z,7.18
2023-04-08T07:40:42.220Z,7.45
2023-04-08T07:43:44.528Z,7.70
2023-04-08T07:46:50.966Z,7.90
2023-04-08T07:49:54.722Z,7.78
2023-04-08T07:52:57.057Z,7.95
2023-04-08T07:55:59.438Z,7.74
2023-04-08T07:59:02.170Z,7.92
2023-04-08T08:02:04.602Z,8.17
2023-04-08T08:05:07.969Z,8.44
2023-04-08T08:08:13.671Z,8.16
2023-04-08T08:11:16.234Z,8.02
2023-04-08T08:14:18.736Z,8.03
2023-04-08T08:17:21.885Z,8.62
2023-04-08T08:20:24.583Z,8.36
2023-04-08T08:23:27.279Z,7.78
2023-04-08T08:26:29.994Z,8.23
2023-04-08T08:29:32.547Z,8.10
2023-04-08T08:32:34.996Z,7.70
2023-04-08T08:35:37.857Z,7.82
2023-04-08T08:38:40.730Z,7.96
2023-04-08T13:39:54.375Z,11.79
2023-04-08T13:42:56.810Z,12.72
2023-04-08T13:45:59.695Z,13.38
2023-04-08T13:49:03.514Z,13.89
2023-04-08T13:52:05.970Z,14.09
2023-04-08T13:55:09.001Z,14.30
2023-04-08T13:58:22.939Z,14.10
2023-04-08T14:01:26.906Z,14.12
2023-04-08T14:04:29.755Z,13.85
2023-04-08T14:07:32.647Z,13.76
2023-04-08T14:10:35.401Z,14.15
2023-04-08T14:13:38.214Z,14.14
2023-04-08T14:16:41.908Z,13.93
2023-04-08T14:19:44.555Z,13.49
2023-04-08T14:22:47.301Z,13.42
2023-04-08T14:25:49.663Z,13.54
2023-04-08T14:28:52.591Z,13.52
2023-04-08T14:31:55.366Z,13.96
2023-04-08T14:34:57.892Z,13.86
2023-04-08T14:38:00.481Z,13.78
2023-04-08T14:41:02.930Z,14.08
2023-04-08T14:44:05.670Z,14.75
2023-04-08T14:47:08.436Z,14.72
2023-04-08T14:50:11.177Z,15.06
2023-04-08T14:53:14.314Z,14.75
2023-04-08T14:56:17.443Z,14.82
2023-04-08T14:59:20.787Z,14.49
2023-04-08T15:02:24.100Z,14.26
2023-04-08T15:05:26.893Z,14.36
2023-04-08T15:08:29.666Z,14.37
2023-04-08T15:11:32.079Z,14.83
2023-04-08T15:14:34.789Z,15.08
2023-04-08T15:17:37.738Z,15.03
2023-04-08T15:20:40.423Z,14.90
2023-04-08T15:23:43.765Z,14.63
2023-04-08T15:26:46.509Z,14.13
2023-04-08T15:29:49.706Z,13.90
2023-04-08T15:32:52.822Z,13.89
2023-04-08T15:35:56.170Z,13.92
2023-04-08T15:38:58.860Z,13.83
2023-04-08T15:42:01.674Z,13.72
2023-04-08T15:45:05.383Z,13.66
2023-04-08T15:48:07.975Z,13.70
2023-04-08T15:51:12.794Z,13.68
2023-04-08T15:54:15.759Z,13.58
2023-04-08T15:57:18.285Z,13.58
2023-04-08T16:00:21.021Z,13.55
2023-04-08T16:03:23.745Z,13.37
2023-04-08T16:06:27.025Z,13.29
2023-04-08T16:09:30.623Z,13.23
2023-04-08T16:12:33.348Z,13.16
2023-04-08T16:15:36.264Z,13.00
2023-04-08T16:18:39.394Z,12.94
2023-04-08T16:21:42.112Z,12.94
2023-04-08T16:24:44.760Z,13.02
2023-04-08T16:27:48.050Z,12.83
2023-04-08T16:30:50.548Z,12.75
2023-04-08T16:33:52.973Z,12.62
2023-04-08T16:36:55.648Z,12.45
2023-04-08T16:39:58.444Z,12.34
2023-04-08T16:43:01.852Z,12.15
2023-04-08T16:46:16.541Z,11.93
2023-04-08T16:49:18.958Z,11.94
2023-04-08T16:52:21.813Z,11.79
2023-04-08T16:55:24.455Z,11.67
2023-04-08T16:58:26.964Z,11.53
2023-04-08T17:01:29.924Z,11.22
2023-04-08T17:04:32.819Z,11.16
2023-04-08T17:07:35.389Z,11.04
2023-04-08T17:10:37.816Z,10.96
2023-04-08T17:13:42.098Z,10.71
2023-04-08T17:16:44.721Z,10.53
2023-04-08T17:19:47.337Z,10.44
2023-04-08T17:22:50.091Z,10.23
2023-04-08T17:25:54.060Z,10.07
2023-04-08T17:28:56.789Z,9.98
2023-04-08T17:31:59.232Z,9.90
2023-04-08T17:35:02.974Z,9.78
2023-04-08T17:38:05.706Z,9.60
2023-04-08T17:41:08.439Z,9.32
2023-04-08T17:44:11.125Z,9.26
2023-04-08T17:47:13.557Z,9.19
2023-04-08T17:50:18.282Z,9.01
2023-04-08T17:53:20.997Z,8.83
2023-04-08T17:56:23.705Z,8.68
2023-04-08T17:59:26.536Z,8.62
2023-04-08T18:02:29.252Z,8.36
2023-04-08T18:05:32.674Z,8.41
2023-04-08T18:08:35.959Z,8.35
2023-04-08T18:11:38.326Z,8.28
2023-04-08T18:14:41.022Z,8.25
2023-04-08T18:17:43.644Z,8.23
2023-04-08T18:20:45.993Z,8.18
2023-04-08T18:23:51.396Z,8.15
2023-04-08T18:27:04.476Z,8.18
2023-04-08T18:30:11.019Z,8.09
2023-04-08T18:33:14.272Z,8.04
2023-04-08T18:36:17.675Z,7.96
2023-04-08T18:39:20.285Z,7.94
2023-04-08T18:42:22.768Z,7.80
2023-04-08T18:45:25.705Z,7.81
2023-04-08T18:48:28.641Z,7.70
2023-04-08T18:51:31.080Z,7.60
2023-04-08T18:54:33.869Z,7.27
2023-04-08T18:57:36.304Z,7.41
2023-04-08T19:00:42.105Z,7.26
2023-04-08T19:03:44.813Z,7.20
2023-04-08T19:06:47.480Z,7.20
2023-04-08T19:09:50.050Z,6.71
2023-04-08T19:12:52.450Z,7.04
2023-04-08T19:15:54.790Z,7.00
2023-04-08T19:18:57.375Z,6.96
2023-04-08T19:22:02.871Z,6.97
2023-04-08T19:25:05.646Z,6.96
2023-04-08T19:28:13.437Z,7.02
2023-04-08T19:31:17.324Z,6.93
2023-04-08T19:34:19.749Z,6.91
2023-04-08T19:37:22.094Z,6.82
2023-04-08T19:40:24.420Z,6.83
2023-04-08T19:43:27.622Z,6.80
2023-04-08T19:46:30.094Z,6.77
2023-04-08T19:49:32.626Z,6.76
2023-04-08T19:52:35.126Z,6.69
2023-04-08T19:55:37.927Z,6.60
2023-04-08T19:58:40.318Z,6.73
2023-04-08T20:01:42.713Z,6.40
2023-04-08T20:04:45.745Z,6.20
2023-04-08T20:07:48.439Z,6.29
2023-04-08T20:10:51.082Z,6.18
2023-04-08T20:13:53.605Z,6.04
2023-04-08T20:16:55.838Z,6.04
2023-04-08T20:19:58.163Z,6.05
2023-04-08T20:23:01.003Z,5.95
2023-04-08T20:26:03.404Z,5.91
2023-04-08T20:29:06.057Z,5.95
2023-04-08T20:32:08.445Z,5.92
2023-04-08T20:35:11.125Z,5.92
2023-04-08T20:38:13.711Z,5.85
2023-04-08T20:41:23.092Z,5.81
2023-04-08T20:44:26.732Z,5.65
2023-04-08T20:47:29.115Z,5.62
2023-04-08T20:50:31.513Z,5.59
2023-04-08T20:53:34.647Z,5.48
2023-04-08T20:56:37.014Z,5.31
2023-04-08T20:59:39.383Z,5.50
2023-04-08T21:02:41.957Z,5.65
2023-04-08T21:05:44.526Z,5.75
2023-04-08T21:08:47.652Z,5.68
2023-04-08T21:11:50.080Z,5.67
2023-04-08T21:14:52.470Z,5.69
2023-04-08T21:17:54.988Z,5.65
2023-04-08T21:20:57.560Z,5.66
2023-04-08T21:24:00.758Z,5.75
2023-04-08T21:27:03.219Z,5.70
2023-04-08T21:30:06.331Z,5.75
2023-04-08T21:33:09.107Z,5.77
2023-04-08T21:36:11.682Z,5.62
2023-04-08T21:39:14.163Z,5.69
2023-04-08T21:42:16.432Z,5.66
2023-04-08T21:45:19.257Z,5.53
2023-04-08T21:48:21.699Z,5.57
2023-04-08T21:51:24.024Z,5.61
2023-04-08T21:54:26.413Z,5.71
2023-04-08T21:57:28.826Z,5.60
2023-04-08T22:00:31.353Z,5.61
2023-04-08T22:03:34.189Z,5.77
2023-04-08T22:06:36.665Z,5.91
2023-04-08T22:09:39.092Z,6.01
2023-04-08T22:12:41.426Z,5.87
2023-04-08T22:15:44.008Z,5.73
2023-04-08T22:18:46.743Z,5.51
2023-04-08T22:21:51.125Z,5.70
2023-04-08T22:24:53.576Z,5.66
2023-04-08T22:27:56.289Z,5.60
2023-04-08T22:30:59.820Z,5.42
2023-04-08T22:34:02.314Z,5.42
2023-04-08T22:37:04.849Z,5.36
2023-04-08T22:40:07.939Z,5.34
2023-04-08T22:43:11.530Z,5.26
2023-04-08T22:46:14.680Z,5.19
2023-04-08T22:49:17.017Z,5.23
2023-04-08T22:52:19.328Z,5.27
2023-04-08T22:55:21.691Z,5.28
2023-04-08T22:58:24.158Z,5.17
2023-04-08T23:01:26.535Z,5.09
2023-04-08T23:04:28.972Z,5.17
2023-04-08T23:07:31.957Z,5.08
2023-04-08T23:10:34.757Z,4.85
2023-04-08T23:13:37.179Z,5.04
2023-04-08T23:16:39.524Z,5.02
2023-04-08T23:19:42.541Z,5.00
2023-04-08T23:22:44.870Z,4.98
2023-04-08T23:25:47.903Z,4.85
2023-04-08T23:28:50.748Z,4.83
2023-04-08T23:31:53.655Z,4.70
2023-04-08T23:34:56.246Z,4.72
2023-04-08T23:37:58.643Z,4.51
2023-04-08T23:41:01.507Z,4.39
2023-04-08T23:44:04.022Z,4.54
2023-04-08T23:47:06.595Z,4.64
2023-04-08T23:50:09.721Z,4.73
2023-04-08T23:53:12.112Z,4.65
2023-04-08T23:56:14.564Z,4.57
2023-04-08T23:59:17.173Z,4.71
